Terminal Aerodrome Forecast
Issued by NWS

Home | Current Version | Previous Version | Text Only | Print | Product List | Glossary On
Versions: 1 2 3 4 5 6 7 8 9 10 11 12 13 14 15 16 17 18 19 20
000
FTUS43 KGRR 272331
TAFMKG
TAF
KMKG 272331Z 2800/2824 18008KT P6SM BKN035 BKN150 BKN220
     FM280400 23004KT 4SM BR VCSH BKN050
     FM280900 25004KT 4SM BR OVC015
     FM281100 26003KT 2SM BR BKN007
     FM281500 26006KT P6SM BKN050
     FM282000 27006KT P6SM FEW250=

USA.gov is the U.S. government's official web portal to all federal, state and local government web resources and services.